TAF KIWD
KIWD 081727Z 0818/0918 25005KT P6SM OVC060 FM090800 16010KT P6SM OVC070 FM091000 16011G24KT P6SM OVC070 WS020/19040KT FM091200 16013G28KT P6SM OVC060 WS020/19045KT=
METAR KIWD
WC KIWD
WS KIWD
WV KIWD